sensor_id;sensor_type;location;lat;lon;timestamp;P1;durP1;ratioP1;P2;durP2;ratioP2
11709;SDS011;5911;51.036;6.972;2022-07-04T00:00:32;1.35;;;0.80;;
11709;SDS011;5911;51.036;6.972;2022-07-04T00:03:00;1.05;;;0.90;;
11709;SDS011;5911;51.036;6.972;2022-07-04T00:05:29;3.28;;;1.20;;
11709;SDS011;5911;51.036;6.972;2022-07-04T00:07:57;1.15;;;0.88;;
11709;SDS011;5911;51.036;6.972;2022-07-04T00:10:26;2.15;;;0.93;;
11709;SDS011;5911;51.036;6.972;2022-07-04T00:12:54;1.50;;;0.80;;
11709;SDS011;5911;51.036;6.972;2022-07-04T00:15:23;1.20;;;1.00;;
11709;SDS011;5911;51.036;6.972;2022-07-04T00:17:51;3.17;;;0.73;;
11709;SDS011;5911;51.036;6.972;2022-07-04T00:20:19;3.28;;;1.20;;
11709;SDS011;5911;51.036;6.972;2022-07-04T00:22:48;2.72;;;1.00;;
11709;SDS011;5911;51.036;6.972;2022-07-04T00:25:16;2.78;;;0.95;;
11709;SDS011;5911;51.036;6.972;2022-07-04T00:27:44;1.65;;;0.90;;
11709;SDS011;5911;51.036;6.972;2022-07-04T00:30:13;2.85;;;1.00;;
11709;SDS011;5911;51.036;6.972;2022-07-04T00:32:41;1.33;;;1.02;;
11709;SDS011;5911;51.036;6.972;2022-07-04T00:35:09;1.73;;;1.23;;
11709;SDS011;5911;51.036;6.972;2022-07-04T00:37:36;1.73;;;1.13;;
11709;SDS011;5911;51.036;6.972;2022-07-04T00:40:06;1.98;;;1.23;;
11709;SDS011;5911;51.036;6.972;2022-07-04T00:42:35;1.42;;;1.00;;
11709;SDS011;5911;51.036;6.972;2022-07-04T00:45:03;2.47;;;1.30;;
11709;SDS011;5911;51.036;6.972;2022-07-04T00:47:31;2.47;;;1.08;;
11709;SDS011;5911;51.036;6.972;2022-07-04T00:49:59;1.85;;;1.20;;
11709;SDS011;5911;51.036;6.972;2022-07-04T00:52:27;1.38;;;0.90;;
11709;SDS011;5911;51.036;6.972;2022-07-04T00:54:55;3.17;;;1.00;;
11709;SDS011;5911;51.036;6.972;2022-07-04T00:57:28;0.88;;;0.80;;
11709;SDS011;5911;51.036;6.972;2022-07-04T00:59:56;2.00;;;1.00;;
11709;SDS011;5911;51.036;6.972;2022-07-04T01:02:23;2.67;;;1.10;;
11709;SDS011;5911;51.036;6.972;2022-07-04T01:04:51;2.75;;;0.95;;
11709;SDS011;5911;51.036;6.972;2022-07-04T01:07:20;1.77;;;1.05;;
11709;SDS011;5911;51.036;6.972;2022-07-04T01:09:48;4.55;;;1.10;;
11709;SDS011;5911;51.036;6.972;2022-07-04T01:12:24;1.38;;;1.00;;
11709;SDS011;5911;51.036;6.972;2022-07-04T01:14:54;2.33;;;0.70;;
11709;SDS011;5911;51.036;6.972;2022-07-04T01:17:22;1.67;;;1.10;;
11709;SDS011;5911;51.036;6.972;2022-07-04T01:19:50;1.05;;;0.93;;
11709;SDS011;5911;51.036;6.972;2022-07-04T01:22:19;1.48;;;0.80;;
11709;SDS011;5911;51.036;6.972;2022-07-04T01:24:48;1.27;;;1.02;;
11709;SDS011;5911;51.036;6.972;2022-07-04T01:27:17;1.48;;;0.88;;
11709;SDS011;5911;51.036;6.972;2022-07-04T01:29:45;0.90;;;0.80;;
11709;SDS011;5911;51.036;6.972;2022-07-04T01:32:13;2.75;;;1.00;;
11709;SDS011;5911;51.036;6.972;2022-07-04T01:34:41;1.80;;;1.00;;
11709;SDS011;5911;51.036;6.972;2022-07-04T01:37:09;3.33;;;1.30;;
11709;SDS011;5911;51.036;6.972;2022-07-04T01:39:39;2.10;;;1.13;;
11709;SDS011;5911;51.036;6.972;2022-07-04T01:42:07;1.38;;;0.82;;
11709;SDS011;5911;51.036;6.972;2022-07-04T01:44:36;3.13;;;1.10;;
11709;SDS011;5911;51.036;6.972;2022-07-04T01:47:04;1.27;;;1.00;;
11709;SDS011;5911;51.036;6.972;2022-07-04T01:49:32;1.10;;;1.00;;
11709;SDS011;5911;51.036;6.972;2022-07-04T01:52:00;1.83;;;1.13;;
11709;SDS011;5911;51.036;6.972;2022-07-04T01:54:29;1.67;;;1.10;;
11709;SDS011;5911;51.036;6.972;2022-07-04T01:56:58;1.42;;;1.15;;
11709;SDS011;5911;51.036;6.972;2022-07-04T01:59:26;2.00;;;1.20;;
11709;SDS011;5911;51.036;6.972;2022-07-04T02:02:08;2.35;;;1.08;;
11709;SDS011;5911;51.036;6.972;2022-07-04T02:04:36;3.90;;;0.93;;
11709;SDS011;5911;51.036;6.972;2022-07-04T02:07:04;1.85;;;1.15;;
11709;SDS011;5911;51.036;6.972;2022-07-04T02:09:32;1.55;;;1.27;;
11709;SDS011;5911;51.036;6.972;2022-07-04T02:12:02;1.27;;;1.00;;
11709;SDS011;5911;51.036;6.972;2022-07-04T02:14:47;1.60;;;0.90;;
11709;SDS011;5911;51.036;6.972;2022-07-04T02:17:15;2.13;;;1.13;;
11709;SDS011;5911;51.036;6.972;2022-07-04T02:19:43;1.60;;;0.80;;
11709;SDS011;5911;51.036;6.972;2022-07-04T02:22:12;2.15;;;0.88;;
11709;SDS011;5911;51.036;6.972;2022-07-04T02:24:39;1.50;;;0.95;;
11709;SDS011;5911;51.036;6.972;2022-07-04T02:27:09;1.50;;;1.00;;
11709;SDS011;5911;51.036;6.972;2022-07-04T02:29:37;3.65;;;1.13;;
11709;SDS011;5911;51.036;6.972;2022-07-04T02:32:07;2.83;;;1.27;;
11709;SDS011;5911;51.036;6.972;2022-07-04T02:34:36;1.67;;;0.90;;
11709;SDS011;5911;51.036;6.972;2022-07-04T02:37:04;0.90;;;0.90;;
11709;SDS011;5911;51.036;6.972;2022-07-04T02:39:32;1.73;;;1.00;;
11709;SDS011;5911;51.036;6.972;2022-07-04T02:42:00;1.73;;;1.10;;
11709;SDS011;5911;51.036;6.972;2022-07-04T02:44:29;1.55;;;1.00;;
11709;SDS011;5911;51.036;6.972;2022-07-04T02:46:57;2.92;;;1.00;;
11709;SDS011;5911;51.036;6.972;2022-07-04T02:49:26;1.77;;;1.05;;
11709;SDS011;5911;51.036;6.972;2022-07-04T02:51:54;3.15;;;1.38;;
11709;SDS011;5911;51.036;6.972;2022-07-04T02:54:22;1.23;;;1.00;;
11709;SDS011;5911;51.036;6.972;2022-07-04T02:56:50;2.08;;;1.00;;
11709;SDS011;5911;51.036;6.972;2022-07-04T02:59:18;2.00;;;1.48;;
11709;SDS011;5911;51.036;6.972;2022-07-04T03:01:47;2.55;;;1.23;;
11709;SDS011;5911;51.036;6.972;2022-07-04T03:04:15;1.80;;;1.08;;
11709;SDS011;5911;51.036;6.972;2022-07-04T03:06:43;2.67;;;1.58;;
11709;SDS011;5911;51.036;6.972;2022-07-04T03:09:11;2.67;;;1.33;;
11709;SDS011;5911;51.036;6.972;2022-07-04T03:11:38;3.75;;;1.48;;
11709;SDS011;5911;51.036;6.972;2022-07-04T03:14:06;2.70;;;1.43;;
11709;SDS011;5911;51.036;6.972;2022-07-04T03:16:34;3.33;;;1.25;;
11709;SDS011;5911;51.036;6.972;2022-07-04T03:19:03;2.25;;;1.50;;
11709;SDS011;5911;51.036;6.972;2022-07-04T03:21:31;2.25;;;1.35;;
11709;SDS011;5911;51.036;6.972;2022-07-04T03:23:59;3.22;;;1.58;;
11709;SDS011;5911;51.036;6.972;2022-07-04T03:26:28;5.63;;;1.47;;
11709;SDS011;5911;51.036;6.972;2022-07-04T03:28:58;2.35;;;1.60;;
11709;SDS011;5911;51.036;6.972;2022-07-04T03:31:27;2.70;;;1.50;;
11709;SDS011;5911;51.036;6.972;2022-07-04T03:33:56;2.72;;;1.20;;
11709;SDS011;5911;51.036;6.972;2022-07-04T03:36:25;1.53;;;1.07;;
11709;SDS011;5911;51.036;6.972;2022-07-04T03:38:53;3.08;;;1.40;;
11709;SDS011;5911;51.036;6.972;2022-07-04T03:41:21;1.88;;;1.15;;
11709;SDS011;5911;51.036;6.972;2022-07-04T03:43:49;3.00;;;1.40;;
11709;SDS011;5911;51.036;6.972;2022-07-04T03:46:16;2.83;;;1.60;;
11709;SDS011;5911;51.036;6.972;2022-07-04T03:48:44;3.05;;;1.30;;
11709;SDS011;5911;51.036;6.972;2022-07-04T03:51:12;4.32;;;2.08;;
11709;SDS011;5911;51.036;6.972;2022-07-04T03:53:42;3.13;;;1.65;;
11709;SDS011;5911;51.036;6.972;2022-07-04T03:56:09;2.83;;;1.50;;
11709;SDS011;5911;51.036;6.972;2022-07-04T03:58:37;2.63;;;1.48;;
11709;SDS011;5911;51.036;6.972;2022-07-04T04:01:05;1.40;;;1.30;;
11709;SDS011;5911;51.036;6.972;2022-07-04T04:03:33;3.30;;;1.88;;
11709;SDS011;5911;51.036;6.972;2022-07-04T04:06:18;3.67;;;1.90;;
11709;SDS011;5911;51.036;6.972;2022-07-04T04:08:48;3.43;;;1.80;;
11709;SDS011;5911;51.036;6.972;2022-07-04T04:11:16;1.97;;;1.30;;
11709;SDS011;5911;51.036;6.972;2022-07-04T04:13:44;2.77;;;1.73;;
11709;SDS011;5911;51.036;6.972;2022-07-04T04:16:11;2.37;;;1.80;;
11709;SDS011;5911;51.036;6.972;2022-07-04T04:18:39;1.90;;;1.40;;
11709;SDS011;5911;51.036;6.972;2022-07-04T04:21:07;3.80;;;1.70;;
11709;SDS011;5911;51.036;6.972;2022-07-04T04:23:35;3.53;;;1.90;;
11709;SDS011;5911;51.036;6.972;2022-07-04T04:26:04;2.20;;;1.70;;
11709;SDS011;5911;51.036;6.972;2022-07-04T04:28:32;3.50;;;1.92;;
11709;SDS011;5911;51.036;6.972;2022-07-04T04:30:59;3.20;;;2.20;;
11709;SDS011;5911;51.036;6.972;2022-07-04T04:33:28;5.15;;;1.90;;
11709;SDS011;5911;51.036;6.972;2022-07-04T04:35:56;5.35;;;2.40;;
11709;SDS011;5911;51.036;6.972;2022-07-04T04:38:23;3.58;;;2.00;;
11709;SDS011;5911;51.036;6.972;2022-07-04T04:40:51;4.60;;;1.77;;
11709;SDS011;5911;51.036;6.972;2022-07-04T04:43:20;3.28;;;1.90;;
11709;SDS011;5911;51.036;6.972;2022-07-04T04:45:48;4.78;;;2.47;;
11709;SDS011;5911;51.036;6.972;2022-07-04T04:48:16;5.47;;;2.73;;
11709;SDS011;5911;51.036;6.972;2022-07-04T04:50:44;5.53;;;2.70;;
11709;SDS011;5911;51.036;6.972;2022-07-04T04:53:12;4.13;;;2.60;;
11709;SDS011;5911;51.036;6.972;2022-07-04T04:55:40;5.50;;;2.53;;
11709;SDS011;5911;51.036;6.972;2022-07-04T04:58:08;5.05;;;2.30;;
11709;SDS011;5911;51.036;6.972;2022-07-04T05:00:37;8.33;;;2.53;;
11709;SDS011;5911;51.036;6.972;2022-07-04T05:03:25;6.63;;;2.15;;
11709;SDS011;5911;51.036;6.972;2022-07-04T05:05:53;7.10;;;2.70;;
11709;SDS011;5911;51.036;6.972;2022-07-04T05:08:20;5.90;;;2.70;;
11709;SDS011;5911;51.036;6.972;2022-07-04T05:10:51;3.97;;;2.67;;
11709;SDS011;5911;51.036;6.972;2022-07-04T05:13:19;7.77;;;2.57;;
11709;SDS011;5911;51.036;6.972;2022-07-04T05:15:48;3.42;;;2.00;;
11709;SDS011;5911;51.036;6.972;2022-07-04T05:18:16;7.40;;;2.47;;
11709;SDS011;5911;51.036;6.972;2022-07-04T05:20:44;4.93;;;2.45;;
11709;SDS011;5911;51.036;6.972;2022-07-04T05:23:12;3.00;;;2.45;;
11709;SDS011;5911;51.036;6.972;2022-07-04T05:25:40;3.67;;;2.33;;
11709;SDS011;5911;51.036;6.972;2022-07-04T05:28:11;5.00;;;2.60;;
11709;SDS011;5911;51.036;6.972;2022-07-04T05:30:39;6.78;;;2.90;;
11709;SDS011;5911;51.036;6.972;2022-07-04T05:33:09;6.22;;;2.85;;
11709;SDS011;5911;51.036;6.972;2022-07-04T05:35:37;7.47;;;2.80;;
11709;SDS011;5911;51.036;6.972;2022-07-04T05:38:06;7.07;;;2.10;;
11709;SDS011;5911;51.036;6.972;2022-07-04T05:40:34;6.22;;;2.50;;
11709;SDS011;5911;51.036;6.972;2022-07-04T05:43:01;10.63;;;2.93;;
11709;SDS011;5911;51.036;6.972;2022-07-04T05:45:29;6.03;;;2.35;;
11709;SDS011;5911;51.036;6.972;2022-07-04T05:47:57;7.57;;;2.90;;
11709;SDS011;5911;51.036;6.972;2022-07-04T05:50:26;6.50;;;2.83;;
11709;SDS011;5911;51.036;6.972;2022-07-04T05:52:58;5.25;;;2.40;;
11709;SDS011;5911;51.036;6.972;2022-07-04T05:55:26;5.80;;;2.42;;
11709;SDS011;5911;51.036;6.972;2022-07-04T05:57:54;4.43;;;2.90;;
11709;SDS011;5911;51.036;6.972;2022-07-04T06:00:22;7.43;;;3.38;;
11709;SDS011;5911;51.036;6.972;2022-07-04T06:02:51;7.57;;;2.95;;
11709;SDS011;5911;51.036;6.972;2022-07-04T06:05:19;5.10;;;2.65;;
11709;SDS011;5911;51.036;6.972;2022-07-04T06:07:48;6.15;;;2.70;;
11709;SDS011;5911;51.036;6.972;2022-07-04T06:10:16;5.03;;;2.65;;
11709;SDS011;5911;51.036;6.972;2022-07-04T06:12:44;5.55;;;2.80;;
11709;SDS011;5911;51.036;6.972;2022-07-04T06:15:12;4.13;;;3.00;;
11709;SDS011;5911;51.036;6.972;2022-07-04T06:17:41;5.25;;;2.60;;
11709;SDS011;5911;51.036;6.972;2022-07-04T06:20:12;8.80;;;3.40;;
11709;SDS011;5911;51.036;6.972;2022-07-04T06:22:40;8.23;;;4.03;;
11709;SDS011;5911;51.036;6.972;2022-07-04T06:25:11;6.65;;;3.35;;
11709;SDS011;5911;51.036;6.972;2022-07-04T06:27:40;7.03;;;4.00;;
11709;SDS011;5911;51.036;6.972;2022-07-04T06:30:11;6.88;;;3.28;;
11709;SDS011;5911;51.036;6.972;2022-07-04T06:32:41;9.37;;;4.27;;
11709;SDS011;5911;51.036;6.972;2022-07-04T06:35:10;7.53;;;3.47;;
11709;SDS011;5911;51.036;6.972;2022-07-04T06:37:55;5.88;;;3.38;;
11709;SDS011;5911;51.036;6.972;2022-07-04T06:40:25;3.70;;;2.70;;
11709;SDS011;5911;51.036;6.972;2022-07-04T06:42:53;3.92;;;2.35;;
11709;SDS011;5911;51.036;6.972;2022-07-04T06:45:20;5.90;;;3.08;;
11709;SDS011;5911;51.036;6.972;2022-07-04T06:47:48;5.25;;;2.53;;
11709;SDS011;5911;51.036;6.972;2022-07-04T06:50:16;7.45;;;3.10;;
11709;SDS011;5911;51.036;6.972;2022-07-04T06:53:05;4.72;;;2.63;;
11709;SDS011;5911;51.036;6.972;2022-07-04T06:55:35;8.88;;;2.95;;
11709;SDS011;5911;51.036;6.972;2022-07-04T06:58:03;7.70;;;2.53;;
11709;SDS011;5911;51.036;6.972;2022-07-04T07:00:32;4.38;;;2.35;;
11709;SDS011;5911;51.036;6.972;2022-07-04T07:03:01;3.58;;;2.08;;
11709;SDS011;5911;51.036;6.972;2022-07-04T07:05:29;3.85;;;2.08;;
11709;SDS011;5911;51.036;6.972;2022-07-04T07:08:17;4.75;;;1.60;;
11709;SDS011;5911;51.036;6.972;2022-07-04T07:10:47;7.65;;;2.72;;
11709;SDS011;5911;51.036;6.972;2022-07-04T07:13:15;3.45;;;1.80;;
11709;SDS011;5911;51.036;6.972;2022-07-04T07:15:42;7.50;;;1.95;;
11709;SDS011;5911;51.036;6.972;2022-07-04T07:18:10;3.80;;;1.65;;
11709;SDS011;5911;51.036;6.972;2022-07-04T07:20:38;3.45;;;1.42;;
11709;SDS011;5911;51.036;6.972;2022-07-04T07:23:06;2.25;;;1.35;;
11709;SDS011;5911;51.036;6.972;2022-07-04T07:25:34;2.55;;;1.67;;
11709;SDS011;5911;51.036;6.972;2022-07-04T07:28:03;3.10;;;1.58;;
11709;SDS011;5911;51.036;6.972;2022-07-04T07:30:31;4.15;;;1.70;;
11709;SDS011;5911;51.036;6.972;2022-07-04T07:32:59;2.47;;;1.20;;
11709;SDS011;5911;51.036;6.972;2022-07-04T07:35:27;4.65;;;1.20;;
11709;SDS011;5911;51.036;6.972;2022-07-04T07:37:55;3.47;;;1.40;;
11709;SDS011;5911;51.036;6.972;2022-07-04T07:40:23;2.17;;;1.38;;
11709;SDS011;5911;51.036;6.972;2022-07-04T07:42:51;2.58;;;1.10;;
11709;SDS011;5911;51.036;6.972;2022-07-04T07:45:22;2.47;;;1.20;;
11709;SDS011;5911;51.036;6.972;2022-07-04T07:47:50;2.03;;;1.15;;
11709;SDS011;5911;51.036;6.972;2022-07-04T07:50:18;2.45;;;1.55;;
11709;SDS011;5911;51.036;6.972;2022-07-04T07:52:46;3.25;;;1.08;;
11709;SDS011;5911;51.036;6.972;2022-07-04T07:55:14;3.60;;;1.30;;
11709;SDS011;5911;51.036;6.972;2022-07-04T07:57:42;2.47;;;1.63;;
11709;SDS011;5911;51.036;6.972;2022-07-04T08:00:14;3.47;;;1.35;;
11709;SDS011;5911;51.036;6.972;2022-07-04T08:03:04;3.55;;;1.10;;
11709;SDS011;5911;51.036;6.972;2022-07-04T08:05:50;2.45;;;1.15;;
11709;SDS011;5911;51.036;6.972;2022-07-04T08:08:18;2.95;;;1.00;;
11709;SDS011;5911;51.036;6.972;2022-07-04T08:10:48;1.70;;;0.88;;
11709;SDS011;5911;51.036;6.972;2022-07-04T08:13:16;2.50;;;1.10;;
11709;SDS011;5911;51.036;6.972;2022-07-04T08:15:44;1.45;;;0.73;;
11709;SDS011;5911;51.036;6.972;2022-07-04T08:18:13;3.10;;;0.77;;
11709;SDS011;5911;51.036;6.972;2022-07-04T08:20:43;1.20;;;0.80;;
11709;SDS011;5911;51.036;6.972;2022-07-04T08:23:27;1.42;;;0.60;;
11709;SDS011;5911;51.036;6.972;2022-07-04T08:25:55;1.20;;;0.68;;
11709;SDS011;5911;51.036;6.972;2022-07-04T08:28:24;4.00;;;1.35;;
11709;SDS011;5911;51.036;6.972;2022-07-04T08:30:52;3.17;;;1.10;;
11709;SDS011;5911;51.036;6.972;2022-07-04T08:33:21;2.38;;;1.10;;
11709;SDS011;5911;51.036;6.972;2022-07-04T08:35:49;2.10;;;0.90;;
11709;SDS011;5911;51.036;6.972;2022-07-04T08:38:17;1.38;;;0.95;;
11709;SDS011;5911;51.036;6.972;2022-07-04T08:40:45;2.47;;;0.70;;
11709;SDS011;5911;51.036;6.972;2022-07-04T08:43:14;2.13;;;0.90;;
11709;SDS011;5911;51.036;6.972;2022-07-04T08:45:42;1.45;;;0.70;;
11709;SDS011;5911;51.036;6.972;2022-07-04T08:48:37;1.10;;;1.00;;
11709;SDS011;5911;51.036;6.972;2022-07-04T08:51:09;1.15;;;0.65;;
11709;SDS011;5911;51.036;6.972;2022-07-04T08:53:43;1.08;;;0.68;;
11709;SDS011;5911;51.036;6.972;2022-07-04T08:56:17;1.45;;;0.80;;
11709;SDS011;5911;51.036;6.972;2022-07-04T08:59:04;3.38;;;0.70;;
11709;SDS011;5911;51.036;6.972;2022-07-04T09:01:33;1.25;;;0.60;;
11709;SDS011;5911;51.036;6.972;2022-07-04T09:04:03;1.77;;;0.95;;
11709;SDS011;5911;51.036;6.972;2022-07-04T09:06:31;1.02;;;0.73;;
11709;SDS011;5911;51.036;6.972;2022-07-04T09:08:59;3.53;;;1.02;;
11709;SDS011;5911;51.036;6.972;2022-07-04T09:11:27;2.85;;;1.48;;
11709;SDS011;5911;51.036;6.972;2022-07-04T09:13:56;3.70;;;1.02;;
11709;SDS011;5911;51.036;6.972;2022-07-04T09:16:24;2.25;;;0.80;;
11709;SDS011;5911;51.036;6.972;2022-07-04T09:18:53;1.85;;;0.57;;
11709;SDS011;5911;51.036;6.972;2022-07-04T09:21:41;0.80;;;0.60;;
11709;SDS011;5911;51.036;6.972;2022-07-04T09:24:10;4.10;;;0.90;;
11709;SDS011;5911;51.036;6.972;2022-07-04T09:26:39;2.45;;;0.80;;
11709;SDS011;5911;51.036;6.972;2022-07-04T09:29:08;0.85;;;0.70;;
11709;SDS011;5911;51.036;6.972;2022-07-04T09:31:36;1.83;;;0.63;;
11709;SDS011;5911;51.036;6.972;2022-07-04T09:34:06;1.30;;;0.80;;
11709;SDS011;5911;51.036;6.972;2022-07-04T09:36:38;1.20;;;0.80;;
11709;SDS011;5911;51.036;6.972;2022-07-04T09:39:09;2.33;;;0.75;;
11709;SDS011;5911;51.036;6.972;2022-07-04T09:44:28;1.00;;;0.60;;
11709;SDS011;5911;51.036;6.972;2022-07-04T09:47:18;1.90;;;0.75;;
11709;SDS011;5911;51.036;6.972;2022-07-04T09:49:57;1.10;;;0.75;;
11709;SDS011;5911;51.036;6.972;2022-07-04T09:52:27;2.58;;;0.77;;
11709;SDS011;5911;51.036;6.972;2022-07-04T09:54:57;4.55;;;1.13;;
11709;SDS011;5911;51.036;6.972;2022-07-04T09:57:25;2.35;;;1.10;;
11709;SDS011;5911;51.036;6.972;2022-07-04T09:59:55;3.10;;;0.90;;
11709;SDS011;5911;51.036;6.972;2022-07-04T10:02:23;1.83;;;0.75;;
11709;SDS011;5911;51.036;6.972;2022-07-04T10:04:51;3.15;;;0.80;;
11709;SDS011;5911;51.036;6.972;2022-07-04T10:07:34;2.25;;;0.80;;
11709;SDS011;5911;51.036;6.972;2022-07-04T10:10:22;0.95;;;0.70;;
11709;SDS011;5911;51.036;6.972;2022-07-04T10:12:51;2.85;;;1.00;;
11709;SDS011;5911;51.036;6.972;2022-07-04T10:15:20;1.83;;;0.85;;
11709;SDS011;5911;51.036;6.972;2022-07-04T10:17:49;2.10;;;1.10;;
11709;SDS011;5911;51.036;6.972;2022-07-04T10:20:17;3.22;;;0.90;;
11709;SDS011;5911;51.036;6.972;2022-07-04T10:22:47;1.40;;;0.90;;
11709;SDS011;5911;51.036;6.972;2022-07-04T10:25:15;4.38;;;1.48;;
11709;SDS011;5911;51.036;6.972;2022-07-04T10:27:44;1.77;;;0.95;;
11709;SDS011;5911;51.036;6.972;2022-07-04T10:30:13;1.52;;;0.82;;
11709;SDS011;5911;51.036;6.972;2022-07-04T10:32:43;1.77;;;0.70;;
11709;SDS011;5911;51.036;6.972;2022-07-04T10:35:13;1.92;;;1.05;;
11709;SDS011;5911;51.036;6.972;2022-07-04T10:38:03;1.80;;;0.90;;
11709;SDS011;5911;51.036;6.972;2022-07-04T10:40:43;3.55;;;1.23;;
11709;SDS011;5911;51.036;6.972;2022-07-04T10:46:22;2.08;;;0.90;;
11709;SDS011;5911;51.036;6.972;2022-07-04T10:48:51;1.08;;;0.82;;
11709;SDS011;5911;51.036;6.972;2022-07-04T10:51:31;2.42;;;0.90;;
11709;SDS011;5911;51.036;6.972;2022-07-04T10:54:10;1.10;;;1.00;;
11709;SDS011;5911;51.036;6.972;2022-07-04T10:56:41;1.48;;;0.80;;
11709;SDS011;5911;51.036;6.972;2022-07-04T10:59:15;1.02;;;0.82;;
11709;SDS011;5911;51.036;6.972;2022-07-04T11:01:48;2.30;;;0.75;;
11709;SDS011;5911;51.036;6.972;2022-07-04T11:04:44;1.88;;;1.00;;
11709;SDS011;5911;51.036;6.972;2022-07-04T11:07:16;2.92;;;1.17;;
11709;SDS011;5911;51.036;6.972;2022-07-04T11:09:47;2.60;;;1.00;;
11709;SDS011;5911;51.036;6.972;2022-07-04T11:13:07;2.05;;;1.08;;
11709;SDS011;5911;51.036;6.972;2022-07-04T11:18:29;3.33;;;0.90;;
11709;SDS011;5911;51.036;6.972;2022-07-04T11:21:14;2.58;;;0.93;;
11709;SDS011;5911;51.036;6.972;2022-07-04T11:23:48;2.55;;;1.10;;
11709;SDS011;5911;51.036;6.972;2022-07-04T11:26:18;1.02;;;0.77;;
11709;SDS011;5911;51.036;6.972;2022-07-04T11:28:47;4.03;;;1.05;;
11709;SDS011;5911;51.036;6.972;2022-07-04T11:31:15;2.65;;;0.80;;
11709;SDS011;5911;51.036;6.972;2022-07-04T11:33:44;4.22;;;1.15;;
11709;SDS011;5911;51.036;6.972;2022-07-04T11:36:13;2.10;;;0.88;;
11709;SDS011;5911;51.036;6.972;2022-07-04T11:38:52;2.78;;;1.00;;
11709;SDS011;5911;51.036;6.972;2022-07-04T11:41:23;2.90;;;0.90;;
11709;SDS011;5911;51.036;6.972;2022-07-04T11:44:11;1.05;;;0.73;;
11709;SDS011;5911;51.036;6.972;2022-07-04T11:47:02;2.70;;;1.05;;
11709;SDS011;5911;51.036;6.972;2022-07-04T11:49:31;4.70;;;0.90;;
11709;SDS011;5911;51.036;6.972;2022-07-04T11:51:59;2.63;;;1.00;;
11709;SDS011;5911;51.036;6.972;2022-07-04T11:54:27;5.05;;;1.38;;
11709;SDS011;5911;51.036;6.972;2022-07-04T11:57:16;3.80;;;1.00;;
11709;SDS011;5911;51.036;6.972;2022-07-04T11:59:56;3.60;;;1.00;;
11709;SDS011;5911;51.036;6.972;2022-07-04T12:02:26;3.35;;;1.00;;
11709;SDS011;5911;51.036;6.972;2022-07-04T12:04:55;2.22;;;0.90;;
11709;SDS011;5911;51.036;6.972;2022-07-04T12:07:24;3.78;;;1.00;;
11709;SDS011;5911;51.036;6.972;2022-07-04T12:09:55;3.45;;;1.10;;
11709;SDS011;5911;51.036;6.972;2022-07-04T12:12:24;4.13;;;1.15;;
11709;SDS011;5911;51.036;6.972;2022-07-04T12:14:56;1.77;;;1.00;;
11709;SDS011;5911;51.036;6.972;2022-07-04T12:17:29;1.40;;;0.75;;
11709;SDS011;5911;51.036;6.972;2022-07-04T12:19:59;1.88;;;0.93;;
11709;SDS011;5911;51.036;6.972;2022-07-04T12:22:32;1.98;;;0.95;;
11709;SDS011;5911;51.036;6.972;2022-07-04T12:25:03;2.30;;;0.75;;
11709;SDS011;5911;51.036;6.972;2022-07-04T12:27:34;2.42;;;0.77;;
11709;SDS011;5911;51.036;6.972;2022-07-04T12:30:03;3.45;;;0.85;;
11709;SDS011;5911;51.036;6.972;2022-07-04T12:32:44;1.38;;;0.60;;
11709;SDS011;5911;51.036;6.972;2022-07-04T12:38:19;1.38;;;0.70;;
11709;SDS011;5911;51.036;6.972;2022-07-04T12:40:52;2.55;;;1.00;;
11709;SDS011;5911;51.036;6.972;2022-07-04T12:43:24;3.38;;;1.02;;
11709;SDS011;5911;51.036;6.972;2022-07-04T12:45:54;1.83;;;1.10;;
11709;SDS011;5911;51.036;6.972;2022-07-04T12:48:24;1.50;;;0.90;;
11709;SDS011;5911;51.036;6.972;2022-07-04T12:50:54;2.67;;;0.82;;
11709;SDS011;5911;51.036;6.972;2022-07-04T12:53:35;1.13;;;0.60;;
11709;SDS011;5911;51.036;6.972;2022-07-04T12:56:04;1.13;;;0.80;;
11709;SDS011;5911;51.036;6.972;2022-07-04T12:58:33;3.15;;;0.90;;
11709;SDS011;5911;51.036;6.972;2022-07-04T13:01:01;1.52;;;0.98;;
11709;SDS011;5911;51.036;6.972;2022-07-04T13:03:29;2.70;;;1.10;;
11709;SDS011;5911;51.036;6.972;2022-07-04T13:05:57;2.35;;;0.68;;
11709;SDS011;5911;51.036;6.972;2022-07-04T13:08:25;3.78;;;0.88;;
11709;SDS011;5911;51.036;6.972;2022-07-04T13:10:53;2.53;;;0.73;;
11709;SDS011;5911;51.036;6.972;2022-07-04T13:13:42;1.67;;;0.90;;
11709;SDS011;5911;51.036;6.972;2022-07-04T13:16:10;1.92;;;0.75;;
11709;SDS011;5911;51.036;6.972;2022-07-04T13:18:44;1.92;;;0.90;;
11709;SDS011;5911;51.036;6.972;2022-07-04T13:21:12;1.75;;;0.90;;
11709;SDS011;5911;51.036;6.972;2022-07-04T13:23:40;3.63;;;0.90;;
11709;SDS011;5911;51.036;6.972;2022-07-04T13:26:08;2.00;;;1.00;;
11709;SDS011;5911;51.036;6.972;2022-07-04T13:28:36;1.77;;;0.80;;
11709;SDS011;5911;51.036;6.972;2022-07-04T13:31:05;1.88;;;0.80;;
11709;SDS011;5911;51.036;6.972;2022-07-04T13:33:33;1.77;;;0.82;;
11709;SDS011;5911;51.036;6.972;2022-07-04T13:36:01;2.63;;;0.82;;
11709;SDS011;5911;51.036;6.972;2022-07-04T13:38:29;1.67;;;0.63;;
11709;SDS011;5911;51.036;6.972;2022-07-04T13:40:57;3.30;;;0.80;;
11709;SDS011;5911;51.036;6.972;2022-07-04T13:43:25;3.55;;;0.82;;
11709;SDS011;5911;51.036;6.972;2022-07-04T13:45:53;4.78;;;1.30;;
11709;SDS011;5911;51.036;6.972;2022-07-04T13:48:24;2.38;;;1.00;;
11709;SDS011;5911;51.036;6.972;2022-07-04T13:50:52;0.95;;;0.80;;
11709;SDS011;5911;51.036;6.972;2022-07-04T13:53:20;3.40;;;0.90;;
11709;SDS011;5911;51.036;6.972;2022-07-04T13:55:48;2.90;;;1.77;;
11709;SDS011;5911;51.036;6.972;2022-07-04T13:58:15;1.88;;;1.10;;
11709;SDS011;5911;51.036;6.972;2022-07-04T14:00:44;2.85;;;1.00;;
11709;SDS011;5911;51.036;6.972;2022-07-04T14:03:12;2.42;;;0.70;;
11709;SDS011;5911;51.036;6.972;2022-07-04T14:05:42;1.52;;;0.77;;
11709;SDS011;5911;51.036;6.972;2022-07-04T14:08:10;3.50;;;1.23;;
11709;SDS011;5911;51.036;6.972;2022-07-04T14:10:38;3.22;;;1.10;;
11709;SDS011;5911;51.036;6.972;2022-07-04T14:13:06;3.60;;;1.23;;
11709;SDS011;5911;51.036;6.972;2022-07-04T14:15:36;8.63;;;1.17;;
11709;SDS011;5911;51.036;6.972;2022-07-04T14:18:04;5.47;;;1.35;;
11709;SDS011;5911;51.036;6.972;2022-07-04T14:20:37;3.58;;;0.93;;
11709;SDS011;5911;51.036;6.972;2022-07-04T14:23:06;2.53;;;1.10;;
11709;SDS011;5911;51.036;6.972;2022-07-04T14:25:34;1.90;;;0.82;;
11709;SDS011;5911;51.036;6.972;2022-07-04T14:28:02;2.63;;;1.08;;
11709;SDS011;5911;51.036;6.972;2022-07-04T14:30:30;1.23;;;1.00;;
11709;SDS011;5911;51.036;6.972;2022-07-04T14:32:58;4.38;;;1.08;;
11709;SDS011;5911;51.036;6.972;2022-07-04T14:35:26;3.60;;;0.95;;
11709;SDS011;5911;51.036;6.972;2022-07-04T14:37:54;2.53;;;0.98;;
11709;SDS011;5911;51.036;6.972;2022-07-04T14:40:24;2.35;;;1.08;;
11709;SDS011;5911;51.036;6.972;2022-07-04T14:42:52;2.28;;;0.90;;
11709;SDS011;5911;51.036;6.972;2022-07-04T14:45:20;2.05;;;0.90;;
11709;SDS011;5911;51.036;6.972;2022-07-04T14:47:48;3.25;;;1.15;;
11709;SDS011;5911;51.036;6.972;2022-07-04T14:50:15;4.50;;;1.00;;
11709;SDS011;5911;51.036;6.972;2022-07-04T14:52:43;3.33;;;1.25;;
11709;SDS011;5911;51.036;6.972;2022-07-04T14:55:11;3.78;;;1.20;;
11709;SDS011;5911;51.036;6.972;2022-07-04T14:57:40;2.38;;;1.10;;
11709;SDS011;5911;51.036;6.972;2022-07-04T15:00:09;2.03;;;0.90;;
11709;SDS011;5911;51.036;6.972;2022-07-04T15:02:37;4.63;;;1.17;;
11709;SDS011;5911;51.036;6.972;2022-07-04T15:05:06;2.45;;;0.90;;
11709;SDS011;5911;51.036;6.972;2022-07-04T15:07:38;1.70;;;0.80;;
11709;SDS011;5911;51.036;6.972;2022-07-04T15:10:06;3.30;;;1.00;;
11709;SDS011;5911;51.036;6.972;2022-07-04T15:12:34;4.07;;;1.17;;
11709;SDS011;5911;51.036;6.972;2022-07-04T15:15:04;2.33;;;0.90;;
11709;SDS011;5911;51.036;6.972;2022-07-04T15:17:32;3.83;;;0.90;;
11709;SDS011;5911;51.036;6.972;2022-07-04T15:20:02;3.35;;;0.95;;
11709;SDS011;5911;51.036;6.972;2022-07-04T15:22:47;2.38;;;1.00;;
11709;SDS011;5911;51.036;6.972;2022-07-04T15:25:37;1.27;;;1.00;;
11709;SDS011;5911;51.036;6.972;2022-07-04T15:28:05;2.33;;;1.05;;
11709;SDS011;5911;51.036;6.972;2022-07-04T15:30:34;2.95;;;0.98;;